Terminal Aerodrome Forecast
Issued by NWS Upton, NY

Home | Current Version | Previous Version | Text Only | Print | Product List | Glossary On
Versions: 1 2 3 4 5 6 7 8 9 10 11 12 13 14 15 16 17 18 19 20 21 22 23 24 25 26 27 28 29
000
FTUS41 KOKX 061932 AAA
TAFJFK
TAF AMD
KJFK 061932Z 0620/0724 08007KT P6SM BKN070
     FM062100 11006KT P6SM BKN070
     FM070000 13006KT P6SM SCT070
     FM070200 VRB04KT P6SM FEW250
     FM071300 18006KT P6SM FEW250
     FM071800 18010KT P6SM FEW050=

USA.gov is the U.S. government's official web portal to all federal, state and local government web resources and services.